Time;durP1;ratioP1;P1;durP2;ratioP2;P2;SDS_P1;SDS_P2;PMS_P1;PMS_P2;Temp;Humidity;BMP_temperature;BMP_pressure;BME280_temperature;BME280_humidity;BME280_pressure;Samples;Min_cycle;Max_cycle;Signal;HPM_P1;HPM_P2
2022/07/17 00:02:13;;;;;;;;;5.75;4.75;;;;;24.37;35.93;99466.19;5077688;28;45495;-74
2022/07/17 00:04:39;;;;;;;;;3.50;3.50;;;;;24.33;36.39;99480.94;5078039;27;45581;-74
2022/07/17 00:07:04;;;;;;;;;6.75;6.75;;;;;24.30;36.28;99475.81;5077322;27;45333;-74
2022/07/17 00:09:30;;;;;;;;;8.00;6.25;;;;;24.27;36.73;99481.50;5077426;28;45343;-74
2022/07/17 00:11:55;;;;;;;;;5.50;5.50;;;;;24.22;37.08;99489.13;5077367;28;45354;-74
2022/07/17 00:14:20;;;;;;;;;4.50;4.50;;;;;24.17;36.83;99485.97;5075211;28;46342;-74
2022/07/17 00:16:46;;;;;;;;;6.75;6.00;;;;;24.12;37.03;99489.13;5077091;27;45339;-74
2022/07/17 00:19:11;;;;;;;;;4.00;4.00;;;;;24.07;36.92;99487.81;5077413;28;45403;-74
2022/07/17 00:21:37;;;;;;;;;7.25;6.00;;;;;24.02;37.73;99496.28;5077278;28;45666;-74
2022/07/17 00:24:02;;;;;;;;;4.00;3.00;;;;;23.98;37.51;99494.84;5077131;28;45905;-74
2022/07/17 00:26:28;;;;;;;;;7.00;7.00;;;;;23.96;37.42;99491.47;5066645;28;45460;-74
2022/07/17 00:28:53;;;;;;;;;6.00;6.00;;;;;23.91;38.44;99496.41;5077498;27;45952;-74
2022/07/17 00:31:18;;;;;;;;;7.00;5.25;;;;;23.86;37.94;99501.34;5077130;27;45278;-74
2022/07/17 00:33:44;;;;;;;;;6.75;6.00;;;;;23.80;38.42;99493.81;5076881;28;46410;-74
2022/07/17 00:36:09;;;;;;;;;8.50;7.00;;;;;23.74;38.06;99491.69;5076122;27;45509;-74
2022/07/17 00:38:34;;;;;;;;;10.00;6.75;;;;;23.71;37.91;99502.72;5077417;27;45384;-74
2022/07/17 00:41:00;;;;;;;;;8.25;6.75;;;;;23.65;38.98;99498.72;5076459;28;45342;-74
2022/07/17 00:43:26;;;;;;;;;6.00;6.00;;;;;23.58;39.32;99497.56;5077211;28;46534;-74
2022/07/17 00:46:03;;;;;;;;;5.00;4.00;;;;;23.51;39.11;99505.31;5075523;28;46149;-74
2022/07/17 00:48:28;;;;;;;;;3.75;3.75;;;;;23.45;39.77;99500.44;5074509;28;45577;-74
2022/07/17 00:50:55;;;;;;;;;6.00;6.00;;;;;23.41;39.44;99498.16;5076447;28;45403;-74
2022/07/17 00:53:21;;;;;;;;;6.00;5.00;;;;;23.36;39.43;99505.75;5076783;28;45436;-74
2022/07/17 00:55:48;;;;;;;;;7.00;5.25;;;;;23.34;39.93;99505.88;5076030;27;45398;-75
2022/07/17 00:58:22;;;;;;;;;5.00;5.00;;;;;23.32;39.47;99505.16;5076190;27;45497;-74
2022/07/17 01:00:50;;;;;;;;;7.25;6.00;;;;;23.27;39.97;99508.28;5063776;28;45409;-74
2022/07/17 01:03:16;;;;;;;;;6.00;6.00;;;;;23.23;40.06;99501.44;5076096;28;46446;-74
2022/07/17 01:05:42;;;;;;;;;6.25;6.00;;;;;23.20;39.94;99509.78;5076288;28;45478;-74
2022/07/17 01:08:08;;;;;;;;;5.25;5.25;;;;;23.16;40.03;99504.78;5076542;28;45359;-74
2022/07/17 01:10:33;;;;;;;;;6.25;6.25;;;;;23.09;40.56;99507.16;5070096;27;45444;-74
2022/07/17 01:12:59;;;;;;;;;5.75;5.75;;;;;23.06;40.32;99503.88;5069628;28;47394;-74
2022/07/17 01:15:24;;;;;;;;;8.25;8.25;;;;;23.01;40.28;99504.25;5076478;27;45369;-74
2022/07/17 01:17:50;;;;;;;;;5.00;4.50;;;;;22.97;40.28;99510.88;5075263;28;45454;-74
2022/07/17 01:20:15;;;;;;;;;7.00;7.00;;;;;22.94;40.73;99503.09;5076579;27;45358;-74
2022/07/17 01:22:46;;;;;;;;;7.25;7.25;;;;;22.93;40.63;99504.94;5076687;27;46132;-74
2022/07/17 01:25:15;;;;;;;;;7.25;6.75;;;;;22.94;41.10;99509.34;5075268;27;45441;-75
2022/07/17 01:27:42;;;;;;;;;6.50;6.00;;;;;22.94;40.48;99508.47;5076226;28;45375;-74
2022/07/17 01:30:08;;;;;;;;;6.50;6.50;;;;;22.93;40.49;99499.56;5076528;27;45474;-74
2022/07/17 01:32:35;;;;;;;;;7.00;6.00;;;;;22.93;41.05;99506.75;5075533;27;45502;-74
2022/07/17 01:35:01;;;;;;;;;8.00;6.25;;;;;22.91;40.72;99506.03;5075898;28;45434;-74
2022/07/17 01:37:27;;;;;;;;;7.00;6.50;;;;;22.91;40.64;99508.72;5076101;28;45421;-74
2022/07/17 01:39:53;;;;;;;;;7.75;7.75;;;;;22.89;40.27;99516.91;5075385;27;45483;-74
2022/07/17 01:42:19;;;;;;;;;4.50;4.50;;;;;22.91;40.67;99511.41;5075609;28;45466;-74
2022/07/17 01:44:44;;;;;;;;;7.00;6.25;;;;;22.90;40.92;99505.19;5068752;28;45406;-74
2022/07/17 01:47:12;;;;;;;;;6.25;6.25;;;;;22.90;40.92;99509.72;5069935;28;45367;-74
2022/07/17 01:49:38;;;;;;;;;5.75;5.75;;;;;22.92;41.08;99510.44;5066003;28;45474;-74
2022/07/17 01:52:04;;;;;;;;;8.00;6.00;;;;;22.92;41.04;99508.59;5074331;27;46115;-74
2022/07/17 01:54:29;;;;;;;;;8.25;7.00;;;;;22.94;40.63;99519.22;5075464;28;45454;-74
2022/07/17 01:56:55;;;;;;;;;5.25;5.25;;;;;22.93;40.64;99521.06;5075143;27;45527;-74
2022/07/17 01:59:21;;;;;;;;;8.00;7.25;;;;;22.93;40.44;99517.53;5063512;28;45482;-74
2022/07/17 02:01:46;;;;;;;;;7.00;7.00;;;;;22.91;40.59;99517.66;5075626;28;45550;-74
2022/07/17 02:04:11;;;;;;;;;9.00;7.25;;;;;22.90;41.13;99517.78;5075549;27;45444;-74
2022/07/17 02:06:37;;;;;;;;;7.00;7.00;;;;;22.88;41.10;99517.06;5073976;28;45444;-74
2022/07/17 02:09:03;;;;;;;;;8.50;8.50;;;;;22.86;40.80;99514.50;5074846;27;45416;-74
2022/07/17 02:11:28;;;;;;;;;5.00;5.00;;;;;22.87;40.71;99518.03;5075547;28;45458;-74
2022/07/17 02:13:53;;;;;;;;;7.50;7.50;;;;;22.86;40.78;99521.69;5075563;28;45431;-74
2022/07/17 02:16:19;;;;;;;;;7.00;5.00;;;;;22.84;40.78;99508.38;5074927;27;45387;-74
2022/07/17 02:18:44;;;;;;;;;6.00;6.00;;;;;22.84;40.87;99505.69;5073337;28;45824;-74
2022/07/17 02:21:09;;;;;;;;;6.75;6.75;;;;;22.85;40.50;99510.09;5075501;27;46505;-74
2022/07/17 02:23:35;;;;;;;;;6.50;6.50;;;;;22.84;41.22;99505.69;5075099;27;45454;-74
2022/07/17 02:26:00;;;;;;;;;6.50;6.00;;;;;22.80;41.27;99504.25;5075497;27;45572;-74
2022/07/17 02:28:26;;;;;;;;;8.00;7.00;;;;;22.79;40.95;99504.41;5075084;27;45552;-74
2022/07/17 02:30:51;;;;;;;;;7.25;7.25;;;;;22.79;41.32;99505.22;5074666;27;45397;-74
2022/07/17 02:33:16;;;;;;;;;6.00;6.00;;;;;22.79;41.40;99499.03;5075234;28;45475;-74
2022/07/17 02:35:42;;;;;;;;;6.00;6.00;;;;;22.78;42.28;99505.38;5075461;27;45400;-73
2022/07/17 02:38:07;;;;;;;;;6.25;5.25;;;;;22.75;42.34;99513.66;5074633;27;45604;-74
2022/07/17 02:40:33;;;;;;;;;7.00;7.00;;;;;22.73;42.19;99507.56;5074979;28;46077;-74
2022/07/17 02:42:58;;;;;;;;;7.50;7.00;;;;;22.73;42.21;99510.25;5074792;27;45450;-74
2022/07/17 02:45:26;;;;;;;;;7.75;7.75;;;;;22.71;42.59;99513.06;5075081;27;45470;-74
2022/07/17 02:47:54;;;;;;;;;7.50;5.75;;;;;22.73;42.75;99512.94;5074878;27;45479;-74
2022/07/17 02:50:20;;;;;;;;;8.00;8.00;;;;;22.72;43.31;99512.06;5071841;27;45993;-74
2022/07/17 02:52:45;;;;;;;;;7.25;7.00;;;;;22.71;42.82;99509.50;5071036;28;45530;-74
2022/07/17 02:55:11;;;;;;;;;6.75;6.75;;;;;22.69;42.85;99506.97;5074779;28;45460;-74
2022/07/17 02:57:37;;;;;;;;;6.50;6.25;;;;;22.69;42.65;99508.78;5074228;27;45385;-74
2022/07/17 03:00:09;;;;;;;;;7.00;7.00;;;;;22.67;43.05;99514.28;5074282;27;46165;-74
2022/07/17 03:02:34;;;;;;;;;9.00;9.00;;;;;22.68;42.71;99515.16;5074360;27;45375;-74
2022/07/17 03:05:00;;;;;;;;;7.75;6.50;;;;;22.66;42.60;99514.41;5074720;27;45379;-74
2022/07/17 03:07:25;;;;;;;;;6.00;6.00;;;;;22.63;43.15;99512.84;5074824;27;45500;-74
2022/07/17 03:09:50;;;;;;;;;8.00;7.75;;;;;22.59;43.16;99514.94;5073235;28;46592;-74
2022/07/17 03:12:16;;;;;;;;;7.25;7.25;;;;;22.57;42.70;99519.59;5085482;27;45396;-74
2022/07/17 03:14:41;;;;;;;;;8.00;7.25;;;;;22.55;43.34;99513.50;5073461;28;45241;-74
2022/07/17 03:17:07;;;;;;;;;8.00;8.00;;;;;22.53;43.45;99520.81;5074031;27;45420;-73
2022/07/17 03:19:32;;;;;;;;;15.25;14.25;;;;;22.52;43.27;99511.06;5074430;27;46317;-74
2022/07/17 03:21:58;;;;;;;;;9.50;8.00;;;;;22.49;43.33;99519.34;5074304;27;45478;-74
2022/07/17 03:24:23;;;;;;;;;9.00;8.75;;;;;22.46;43.01;99519.59;5074873;27;45787;-74
2022/07/17 03:26:49;;;;;;;;;9.00;9.00;;;;;22.43;43.55;99511.81;5074272;27;45573;-74
2022/07/17 03:29:17;;;;;;;;;7.00;7.00;;;;;22.41;43.67;99516.47;5074501;27;45421;-74
2022/07/17 03:31:45;;;;;;;;;10.00;8.00;;;;;22.38;43.84;99521.22;5073980;27;45430;-74
2022/07/17 03:34:11;;;;;;;;;8.25;8.00;;;;;22.33;43.36;99516.22;5074616;28;45397;-74
2022/07/17 03:36:37;;;;;;;;;11.25;8.00;;;;;22.28;43.65;99522.00;5072892;28;45383;-74
2022/07/17 03:39:02;;;;;;;;;7.00;7.00;;;;;22.24;43.85;99528.59;5074166;27;46377;-74
2022/07/17 03:41:28;;;;;;;;;7.00;7.00;;;;;22.21;43.89;99522.63;5074066;27;45436;-74
2022/07/17 03:43:53;;;;;;;;;11.00;9.25;;;;;22.20;43.82;99521.75;5074684;27;45460;-74
2022/07/17 03:46:19;;;;;;;;;6.00;6.00;;;;;22.21;44.36;99530.69;5074032;27;45551;-74
2022/07/17 03:48:44;;;;;;;;;7.00;7.00;;;;;22.21;44.42;99530.69;5072630;28;47767;-74
2022/07/17 03:51:09;;;;;;;;;7.25;7.25;;;;;22.21;44.39;99528.84;5068597;27;45440;-74
2022/07/17 03:53:35;;;;;;;;;9.25;8.50;;;;;22.23;44.83;99534.09;5072284;28;45700;-74
2022/07/17 03:56:00;;;;;;;;;8.75;7.75;;;;;22.23;44.82;99534.09;5073996;27;45403;-74
2022/07/17 03:58:26;;;;;;;;;8.25;7.75;;;;;22.23;44.18;99534.94;5073696;27;46351;-74
2022/07/17 04:00:51;;;;;;;;;7.00;7.00;;;;;22.22;44.45;99535.94;5073736;27;45445;-74
2022/07/17 04:03:17;;;;;;;;;9.00;7.25;;;;;22.17;45.11;99538.13;5074067;27;45466;-74
2022/07/17 04:05:42;;;;;;;;;7.00;7.00;;;;;22.07;44.97;99542.53;5073218;28;45569;-74
2022/07/17 04:08:08;;;;;;;;;8.00;6.50;;;;;22.00;45.12;99541.31;5073950;27;45678;-74
2022/07/17 04:10:33;;;;;;;;;8.00;8.00;;;;;21.94;45.43;99553.38;5074595;27;45379;-74
2022/07/17 04:12:58;;;;;;;;;11.00;7.75;;;;;21.90;45.52;99548.38;5077062;27;45611;-74
2022/07/17 04:18:08;;;;;;;;;11.00;10.00;;;;;21.84;44.99;99552.41;5077291;28;45288;-74
2022/07/17 04:20:33;;;;;;;;;8.25;7.50;;;;;21.82;45.78;99561.53;5075966;28;45426;-74
2022/07/17 04:22:59;;;;;;;;;6.50;6.50;;;;;21.79;45.53;99562.63;5077572;27;45924;-74
2022/07/17 04:25:24;;;;;;;;;8.50;8.50;;;;;21.75;45.98;99552.28;5077376;27;45415;-74
2022/07/17 04:27:50;;;;;;;;;9.25;9.25;;;;;21.68;45.73;99551.91;5076885;27;45432;-74
2022/07/17 04:30:15;;;;;;;;;9.25;8.00;;;;;21.66;45.83;99559.22;5077155;27;45497;-74
2022/07/17 04:32:41;;;;;;;;;8.75;8.00;;;;;21.65;46.01;99564.69;5077178;27;45400;-74
2022/07/17 04:35:06;;;;;;;;;8.25;8.25;;;;;21.64;46.01;99563.00;5077059;27;45445;-74
2022/07/17 04:37:32;;;;;;;;;9.50;8.50;;;;;21.61;46.06;99566.81;5075542;28;46879;-74
2022/07/17 04:39:57;;;;;;;;;7.25;7.25;;;;;21.62;46.34;99571.16;5076637;27;45482;-74
2022/07/17 04:42:23;;;;;;;;;8.50;7.00;;;;;21.61;46.35;99566.81;5076591;27;45379;-74
2022/07/17 04:44:48;;;;;;;;;11.00;10.00;;;;;21.59;46.16;99563.38;5076817;27;45497;-74
2022/07/17 04:47:13;;;;;;;;;8.75;8.25;;;;;21.62;46.67;99564.97;5076545;27;45437;-74
2022/07/17 04:49:39;;;;;;;;;11.75;10.00;;;;;21.64;46.52;99566.53;5074927;27;45379;-74
2022/07/17 04:52:04;;;;;;;;;9.00;8.25;;;;;21.67;46.73;99568.13;5074047;28;45305;-74
2022/07/17 04:54:30;;;;;;;;;11.50;10.00;;;;;21.70;47.15;99567.91;5076063;27;45461;-74
2022/07/17 04:56:55;;;;;;;;;10.00;9.00;;;;;21.71;47.63;99569.59;5076179;27;45975;-74
2022/07/17 04:59:21;;;;;;;;;10.00;10.00;;;;;21.75;47.36;99566.56;5076440;27;45475;-74
2022/07/17 05:01:46;;;;;;;;;9.25;9.25;;;;;21.78;47.07;99568.16;5080098;27;45970;-74
2022/07/17 05:04:12;;;;;;;;;8.75;8.75;;;;;21.84;46.81;99568.50;5076587;27;45553;-74
2022/07/17 05:06:37;;;;;;;;;12.25;8.75;;;;;21.89;46.26;99568.16;5076568;27;45423;-74
2022/07/17 05:09:02;;;;;;;;;9.00;9.00;;;;;21.95;46.24;99570.34;5076066;27;45506;-74
2022/07/17 05:11:28;;;;;;;;;9.25;9.25;;;;;21.99;46.15;99571.78;5076489;27;45376;-74
2022/07/17 05:13:54;;;;;;;;;8.75;8.25;;;;;22.04;46.46;99569.63;5070607;27;45512;-74
2022/07/17 05:16:19;;;;;;;;;9.75;9.75;;;;;22.08;45.82;99564.88;5075483;27;45526;-74
2022/07/17 05:18:45;;;;;;;;;9.25;9.25;;;;;22.13;45.84;99573.41;5081218;27;45340;-74
2022/07/17 05:21:11;;;;;;;;;11.00;10.00;;;;;22.19;46.05;99573.78;5080476;27;45464;-74
2022/07/17 05:23:36;;;;;;;;;9.25;8.75;;;;;22.23;46.29;99569.88;5079563;27;45440;-74
2022/07/17 05:26:02;;;;;;;;;9.75;8.00;;;;;22.29;45.64;99574.72;5073706;28;47915;-74
2022/07/17 05:28:27;;;;;;;;;10.50;9.25;;;;;22.35;45.97;99577.91;5074522;28;45394;-74
2022/07/17 05:30:52;;;;;;;;;10.00;9.25;;;;;22.39;45.53;99576.69;5075164;27;45551;-74
2022/07/17 05:33:18;;;;;;;;;11.25;11.25;;;;;22.43;45.82;99579.00;5077886;27;45628;-74
2022/07/17 05:35:43;;;;;;;;;9.00;9.00;;;;;22.47;45.94;99582.25;5075896;27;46254;-74
2022/07/17 05:38:10;;;;;;;;;8.00;7.00;;;;;22.49;45.76;99581.16;5075875;27;45407;-74
2022/07/17 05:40:35;;;;;;;;;12.00;11.00;;;;;22.51;45.23;99589.09;5074775;28;45424;-74
2022/07/17 05:43:00;;;;;;;;;10.00;8.50;;;;;22.55;45.31;99585.19;5073787;28;45482;-73
2022/07/17 05:45:26;;;;;;;;;10.50;8.50;;;;;22.60;45.57;99588.38;5075064;27;46508;-73
2022/07/17 05:47:51;;;;;;;;;9.50;9.50;;;;;22.63;45.13;99588.94;5074829;27;45501;-74
2022/07/17 05:50:17;;;;;;;;;9.00;9.00;;;;;22.65;45.01;99591.50;5072285;27;45619;-74
2022/07/17 05:52:42;;;;;;;;;11.00;10.50;;;;;22.70;45.55;99591.13;5070637;27;45461;-74
2022/07/17 05:55:09;;;;;;;;;10.25;9.00;;;;;22.77;44.95;99595.06;5075339;28;46590;-74
2022/07/17 05:57:34;;;;;;;;;9.50;8.75;;;;;22.81;44.93;99591.97;5074997;27;45386;-74
2022/07/17 05:59:59;;;;;;;;;8.00;8.00;;;;;22.89;45.27;99591.34;5075179;27;45456;-74
2022/07/17 06:02:25;;;;;;;;;11.50;9.25;;;;;22.95;44.79;99590.84;5075248;27;45490;-65
2022/07/17 06:04:50;;;;;;;;;9.75;9.75;;;;;23.05;44.92;99591.78;5073322;28;46842;-59
2022/07/17 06:07:16;;;;;;;;;9.75;9.75;;;;;23.18;44.54;99591.59;5074148;28;45402;-57
2022/07/17 06:09:41;;;;;;;;;11.25;10.25;;;;;23.26;44.03;99594.50;5075903;27;45450;-54
2022/07/17 06:12:06;;;;;;;;;9.50;9.50;;;;;23.28;43.83;99596.09;5075145;27;45554;-55
2022/07/17 06:14:32;;;;;;;;;10.75;9.25;;;;;23.30;43.67;99587.84;5075023;27;45741;-55
2022/07/17 06:16:57;;;;;;;;;10.75;10.25;;;;;23.37;44.34;99597.13;5074495;27;45435;-55
2022/07/17 06:19:23;;;;;;;;;9.25;9.25;;;;;23.42;44.32;99596.72;5075605;27;45614;-52
2022/07/17 06:21:49;;;;;;;;;9.50;8.50;;;;;23.45;43.57;99600.03;5073707;27;45636;-54
2022/07/17 06:24:14;;;;;;;;;9.50;8.00;;;;;23.50;43.46;99600.47;5067034;27;45530;-54
2022/07/17 06:26:39;;;;;;;;;11.00;11.00;;;;;23.53;43.61;99599.38;5064227;27;45425;-54
2022/07/17 06:29:05;;;;;;;;;10.50;8.25;;;;;23.57;43.80;99604.38;5075007;27;45428;-53
2022/07/17 06:31:30;;;;;;;;;10.50;10.50;;;;;23.62;43.15;99596.78;5074296;27;45527;-53
2022/07/17 06:33:55;;;;;;;;;13.00;11.25;;;;;23.66;43.32;99594.63;5074114;27;45470;-52
2022/07/17 06:36:21;;;;;;;;;10.00;10.00;;;;;23.71;43.41;99597.78;5074772;27;45416;-54
2022/07/17 06:38:46;;;;;;;;;11.75;10.00;;;;;23.77;42.78;99601.81;5074651;27;45333;-54
2022/07/17 06:41:12;;;;;;;;;11.25;9.50;;;;;23.80;43.00;99604.22;5074486;27;45455;-54
2022/07/17 06:43:37;;;;;;;;;8.00;8.00;;;;;23.86;42.99;99607.22;5074662;27;45718;-55
2022/07/17 06:46:02;;;;;;;;;12.00;10.50;;;;;23.93;43.02;99602.16;5074021;27;45530;-52
2022/07/17 06:48:28;;;;;;;;;9.50;9.25;;;;;23.98;43.03;99603.47;5075452;27;45376;-53
2022/07/17 06:50:53;;;;;;;;;8.00;8.00;;;;;24.05;42.99;99602.94;5071168;28;45470;-50
2022/07/17 06:53:20;;;;;;;;;9.75;8.50;;;;;24.10;42.51;99601.53;5068077;28;46591;-55
2022/07/17 06:55:46;;;;;;;;;12.75;9.25;;;;;24.17;42.58;99604.53;5074461;28;45240;-53
2022/07/17 06:58:11;;;;;;;;;15.50;11.50;;;;;24.22;41.99;99604.97;5074468;28;45425;-54
2022/07/17 07:00:38;;;;;;;;;11.25;11.25;;;;;24.27;41.91;99600.09;5073668;28;45391;-54
2022/07/17 07:03:03;;;;;;;;;11.00;11.00;;;;;24.31;41.53;99596.94;5071528;28;45718;-55
2022/07/17 07:05:28;;;;;;;;;12.25;9.50;;;;;24.37;42.03;99592.88;5074440;27;45535;-53
2022/07/17 07:07:54;;;;;;;;;9.00;9.00;;;;;24.43;40.92;99595.03;5072899;28;45449;-54
2022/07/17 07:10:20;;;;;;;;;9.00;8.00;;;;;24.51;41.01;99599.72;5074486;27;45312;-55
2022/07/17 07:12:45;;;;;;;;;10.00;10.00;;;;;24.56;40.88;99597.47;5072031;27;45550;-54
2022/07/17 07:15:11;;;;;;;;;9.50;8.00;;;;;24.64;40.92;99605.69;5072278;28;45400;-54
2022/07/17 07:17:36;;;;;;;;;10.00;10.00;;;;;24.70;40.43;99606.00;5074408;27;45402;-54
2022/07/17 07:20:05;;;;;;;;;13.25;12.50;;;;;24.77;40.48;99605.44;5074081;27;45478;-55
2022/07/17 07:22:31;;;;;;;;;11.75;11.25;;;;;24.81;40.00;99609.56;5071927;28;46235;-54
2022/07/17 07:24:57;;;;;;;;;9.75;9.00;;;;;24.86;40.16;99604.59;5074206;28;45340;-55
2022/07/17 07:27:22;;;;;;;;;9.00;9.00;;;;;24.92;40.09;99593.25;5073878;27;45520;-55
2022/07/17 07:29:48;;;;;;;;;10.50;9.50;;;;;24.98;39.94;99600.78;5072771;28;45429;-54
2022/07/17 07:32:13;;;;;;;;;9.75;9.75;;;;;25.02;39.60;99592.28;5074118;27;45423;-55
2022/07/17 07:34:39;;;;;;;;;10.50;9.75;;;;;25.07;39.90;99599.97;5073759;27;45503;-54
2022/07/17 07:37:04;;;;;;;;;8.75;8.75;;;;;25.12;39.33;99600.41;5073547;27;45488;-54
2022/07/17 07:39:29;;;;;;;;;10.75;9.25;;;;;25.16;39.02;99598.25;5074005;27;45309;-52
2022/07/17 07:41:55;;;;;;;;;10.00;9.00;;;;;25.20;39.48;99595.13;5073778;27;45494;-53
2022/07/17 07:44:20;;;;;;;;;9.50;8.50;;;;;25.26;39.04;99591.03;5073345;27;45450;-54
2022/07/17 07:46:46;;;;;;;;;11.00;9.75;;;;;25.31;39.29;99600.38;5077248;27;45465;-55
2022/07/17 07:49:11;;;;;;;;;11.75;11.00;;;;;25.39;38.90;99588.88;5073919;27;45440;-61
2022/07/17 07:51:37;;;;;;;;;8.50;8.50;;;;;25.47;39.46;99601.66;5076858;27;46326;-54
2022/07/17 07:54:02;;;;;;;;;10.00;9.00;;;;;25.51;39.27;99594.94;5077467;27;45331;-54
2022/07/17 07:56:27;;;;;;;;;11.50;11.50;;;;;25.56;38.93;99595.38;5077292;27;45779;-54
2022/07/17 07:58:53;;;;;;;;;9.50;9.25;;;;;25.62;39.06;99594.84;5077037;27;45504;-53
2022/07/17 08:01:18;;;;;;;;;8.50;8.50;;;;;25.66;38.80;99590.81;5076053;28;46422;-55
2022/07/17 08:03:44;;;;;;;;;11.50;10.25;;;;;25.72;38.64;99592.97;5077054;27;45395;-55
2022/07/17 08:06:09;;;;;;;;;9.25;9.25;;;;;25.77;38.56;99590.69;5076831;27;45374;-54
2022/07/17 08:08:35;;;;;;;;;9.25;9.25;;;;;25.84;38.52;99590.91;5076855;27;45398;-53
2022/07/17 08:11:00;;;;;;;;;10.25;8.75;;;;;25.90;38.34;99595.75;5076739;27;45506;-53
2022/07/17 08:13:25;;;;;;;;;8.25;8.25;;;;;25.94;38.08;99589.06;5076381;27;45399;-55
2022/07/17 08:15:51;;;;;;;;;10.50;10.50;;;;;25.98;38.34;99585.88;5072915;27;45464;-55
2022/07/17 08:18:16;;;;;;;;;8.50;8.50;;;;;26.05;38.19;99586.16;5076276;28;45545;-54
2022/07/17 08:20:43;;;;;;;;;9.25;9.25;;;;;26.10;38.13;99591.97;5075039;28;48103;-54
2022/07/17 08:23:08;;;;;;;;;10.00;9.75;;;;;26.18;37.96;99591.22;5076353;27;45415;-55
2022/07/17 08:25:34;;;;;;;;;8.00;8.00;;;;;26.23;37.71;99595.19;5076993;27;45641;-55
2022/07/17 08:28:00;;;;;;;;;10.00;8.50;;;;;26.25;37.65;99576.97;5076079;27;45626;-55
2022/07/17 08:30:25;;;;;;;;;10.25;10.00;;;;;26.30;37.60;99585.53;5076451;27;46697;-54
2022/07/17 08:32:51;;;;;;;;;10.00;10.00;;;;;26.36;37.70;99587.59;5076268;27;45257;-53
2022/07/17 08:35:16;;;;;;;;;8.00;8.00;;;;;26.43;37.43;99585.16;5076534;27;45408;-55
2022/07/17 08:37:47;;;;;;;;;8.25;7.50;;;;;26.50;37.42;99588.09;5075267;28;45484;-54
2022/07/17 08:40:21;;;;;;;;;10.00;8.75;;;;;26.56;37.38;99588.34;5076181;27;46453;-54
2022/07/17 08:42:47;;;;;;;;;9.00;9.00;;;;;26.61;36.53;99583.34;5076046;27;45330;-55
2022/07/17 08:45:13;;;;;;;;;10.25;10.25;;;;;26.67;36.98;99581.88;5076850;27;45349;-54
2022/07/17 08:47:40;;;;;;;;;11.00;11.00;;;;;26.75;36.53;99584.66;5074707;28;45563;-54
2022/07/17 08:50:06;;;;;;;;;11.00;9.25;;;;;26.80;36.22;99585.06;5075808;27;45426;-55
2022/07/17 08:52:32;;;;;;;;;8.50;8.25;;;;;26.87;36.31;99583.44;5073848;28;45375;-55
2022/07/17 08:54:57;;;;;;;;;12.75;10.00;;;;;26.91;36.49;99590.25;5076069;28;45552;-54
2022/07/17 08:57:23;;;;;;;;;8.00;8.00;;;;;26.97;36.54;99592.38;5074626;28;45508;-63
2022/07/17 08:59:48;;;;;;;;;10.00;10.00;;;;;27.06;36.56;99593.28;5075731;27;45454;-57
2022/07/17 09:02:14;;;;;;;;;10.75;10.00;;;;;27.11;36.32;99593.69;5075508;27;45408;-50
2022/07/17 09:04:39;;;;;;;;;11.00;9.00;;;;;27.16;36.21;99595.91;5075790;27;45371;-52
2022/07/17 09:07:05;;;;;;;;;11.50;9.25;;;;;27.19;36.37;99591.03;5075415;27;45566;-48
2022/07/17 09:09:33;;;;;;;;;11.75;10.50;;;;;27.23;36.13;99589.72;5075459;27;46065;-48
2022/07/17 09:12:00;;;;;;;;;9.00;9.00;;;;;27.27;36.23;99583.00;5075265;27;45418;-52
2022/07/17 09:14:38;;;;;;;;;9.50;9.50;;;;;27.34;36.19;99592.19;5075802;27;45373;-52
2022/07/17 09:17:05;;;;;;;;;8.50;7.50;;;;;27.40;36.04;99586.16;5062059;28;45506;-51
2022/07/17 09:19:41;;;;;;;;;10.25;8.75;;;;;27.45;35.60;99589.25;5075427;27;46411;-52
2022/07/17 09:22:15;;;;;;;;;10.25;10.25;;;;;27.50;35.88;99590.59;5064387;28;45410;-52
2022/07/17 09:24:56;;;;;;;;;8.00;8.00;;;;;27.52;35.66;99589.44;5075834;27;45413;-52
2022/07/17 09:27:24;;;;;;;;;9.25;9.00;;;;;27.57;35.51;99584.44;5075158;27;45498;-53
2022/07/17 09:29:54;;;;;;;;;8.25;8.25;;;;;27.62;35.79;99582.13;5075358;27;46622;-51
2022/07/17 09:32:21;;;;;;;;;9.50;9.50;;;;;27.68;36.04;99576.03;5075987;28;45524;-51
2022/07/17 09:34:51;;;;;;;;;12.00;11.00;;;;;27.73;35.41;99576.41;5075483;27;45385;-50
2022/07/17 09:37:17;;;;;;;;;11.00;9.75;;;;;27.77;35.75;99580.53;5074901;27;45647;-49
2022/07/17 09:39:42;;;;;;;;;9.50;9.50;;;;;27.81;35.44;99577.50;5074915;27;46403;-51
2022/07/17 09:42:20;;;;;;;;;8.25;8.25;;;;;27.87;35.57;99577.69;5075071;27;45384;-48
2022/07/17 09:44:59;;;;;;;;;9.75;9.75;;;;;27.95;35.26;99575.03;5075449;27;45477;-53
2022/07/17 09:47:25;;;;;;;;;10.50;10.50;;;;;28.02;35.19;99580.66;5075080;27;45628;-51
2022/07/17 09:49:53;;;;;;;;;9.25;9.25;;;;;28.08;34.84;99571.88;5074607;27;46346;-51
2022/07/17 09:52:19;;;;;;;;;12.00;9.75;;;;;28.12;34.83;99579.53;5075004;27;45450;-52
2022/07/17 09:54:47;;;;;;;;;11.75;9.75;;;;;28.16;34.40;99580.03;5072789;28;45412;-51
2022/07/17 09:57:14;;;;;;;;;12.25;11.25;;;;;28.18;34.11;99579.88;5073853;28;45369;-53
2022/07/17 09:59:42;;;;;;;;;12.00;10.50;;;;;28.20;34.72;99578.72;5074350;27;45527;-48
2022/07/17 10:02:09;;;;;;;;;9.75;9.00;;;;;28.23;33.94;99583.00;5074864;27;45522;-48
2022/07/17 10:04:35;;;;;;;;;10.50;10.50;;;;;28.24;34.28;99579.25;5072605;28;45494;-50
2022/07/17 10:07:01;;;;;;;;;10.75;10.75;;;;;28.28;34.08;99569.81;5074280;27;45391;-50
2022/07/17 10:09:26;;;;;;;;;10.75;10.75;;;;;28.34;34.17;99569.13;5073477;28;46721;-48
2022/07/17 10:11:52;;;;;;;;;12.00;10.50;;;;;28.38;34.15;99579.50;5074236;27;45480;-51
2022/07/17 10:14:18;;;;;;;;;11.50;11.00;;;;;28.44;33.12;99575.28;5074927;27;45404;-48
2022/07/17 10:16:45;;;;;;;;;11.50;10.00;;;;;28.46;33.52;99560.53;5074790;27;45425;-48
2022/07/17 10:19:20;;;;;;;;;13.50;13.00;;;;;28.50;33.17;99574.59;5074215;28;45684;-51
2022/07/17 10:21:52;;;;;;;;;11.00;9.75;;;;;28.53;33.67;99570.72;5069910;27;45391;-48
2022/07/17 10:24:18;;;;;;;;;11.75;11.50;;;;;28.58;33.01;99573.78;5067908;28;45515;-51
2022/07/17 10:26:43;;;;;;;;;13.00;13.00;;;;;28.61;32.73;99566.19;5074303;27;45553;-50
2022/07/17 10:29:32;;;;;;;;;12.25;12.25;;;;;28.63;32.21;99566.00;5074588;28;45411;-48
2022/07/17 10:31:59;;;;;;;;;6.75;6.75;;;;;28.66;32.90;99563.78;5065060;28;45521;-49
2022/07/17 10:34:47;;;;;;;;;10.25;10.25;;;;;28.71;32.67;99566.88;5074052;28;45468;-50
2022/07/17 10:37:18;;;;;;;;;9.00;8.00;;;;;28.72;32.71;99555.00;5073884;28;45504;-51
2022/07/17 10:40:00;;;;;;;;;7.50;7.00;;;;;28.76;32.74;99564.50;5074709;27;46128;-47
2022/07/17 10:42:46;;;;;;;;;9.75;9.75;;;;;28.82;32.34;99563.03;5073815;27;45443;-50
2022/07/17 10:45:20;;;;;;;;;14.75;11.25;;;;;28.85;32.33;99549.09;5074401;28;45314;-52
2022/07/17 10:47:58;;;;;;;;;10.00;10.00;;;;;28.91;32.52;99550.31;5073502;28;45420;-51
2022/07/17 10:50:25;;;;;;;;;11.00;11.00;;;;;28.97;32.23;99557.78;5068233;28;46498;-48
2022/07/17 10:53:01;;;;;;;;;11.50;11.50;;;;;29.02;31.97;99555.41;5074204;27;45423;-47
2022/07/17 10:55:27;;;;;;;;;12.00;11.25;;;;;29.08;32.17;99552.88;5068371;27;45422;-49
2022/07/17 10:57:53;;;;;;;;;12.00;11.00;;;;;29.18;31.40;99550.81;5072920;28;45308;-51
2022/07/17 11:00:19;;;;;;;;;6.75;6.75;;;;;29.25;32.15;99551.00;5073095;27;45691;-49
2022/07/17 11:02:45;;;;;;;;;13.00;13.00;;;;;29.30;31.85;99550.50;5074268;27;45364;-49
2022/07/17 11:05:12;;;;;;;;;10.50;8.50;;;;;29.32;32.21;99538.44;5073609;27;45441;-50
2022/07/17 11:07:58;;;;;;;;;12.25;11.25;;;;;29.38;32.21;99545.91;5070303;27;45409;-50
2022/07/17 11:10:25;;;;;;;;;11.00;10.25;;;;;29.45;32.30;99529.81;5073657;27;46952;-52
2022/07/17 11:12:52;;;;;;;;;13.25;12.00;;;;;29.55;31.85;99524.16;5068039;27;45545;-50
2022/07/17 11:15:18;;;;;;;;;9.75;9.75;;;;;29.67;31.95;99531.78;5073755;28;45428;-49
2022/07/17 11:17:45;;;;;;;;;12.75;12.00;;;;;29.79;31.66;99526.84;5073939;28;45416;-52
2022/07/17 11:20:10;;;;;;;;;12.00;12.00;;;;;29.90;31.99;99522.88;5074374;28;45355;-50
2022/07/17 11:22:36;;;;;;;;;10.00;10.00;;;;;29.97;31.83;99535.66;5077235;28;45442;-50
2022/07/17 11:25:04;;;;;;;;;9.75;9.75;;;;;30.02;31.65;99524.22;5076873;27;45928;-52
2022/07/17 11:27:30;;;;;;;;;9.25;9.25;;;;;30.06;31.50;99531.00;5076588;28;45400;-51
2022/07/17 11:29:59;;;;;;;;;12.00;12.00;;;;;30.11;31.74;99512.31;5071865;28;47508;-52